Startpagina
METAR-TAF:

METAR-TAF

Vliegvelden :

Luchthaven Seychellen

Victoria, Mahé, Seychellen

breedte: 04-40S, lengte: 055-31E, hoogte: 3 m

Actueel weer

Dit bericht is 23 minuten geleden gemaakt, om 16:36 UTC
Wind 15 kt uit het zuidoosten met uitschieters tot 25 kt
Temperatuur 25°C
Vochtigheid 83%
Druk 1015 hPa
Zicht 10 km of meer
Weinig wolken op 2000 ft

METAR: FSIA 151636Z 14015G25KT 9999 R13///// FEW020 25/22 Q1015 BECMG 14020G30KT

Tijdstip: 20:59 (16:59 UTC)

Verwachting

Dit bericht is 5 uur en het 54 minuten geleden gemaakt, om 11:05 UTC
Verwachting geldig van 15 om 12 UTC tot 16 om 12 UTC
Wind 15 kt uit het zuidoosten met uitschieters tot 25 kt
Zicht 10 km of meer
Verspreide wolken op 2000 ft
Wijzigt naar
van 16 om 02 UTC tot 16 om 04 UTC
Wind 15 kt uit het zuidoosten met uitschieters tot 20 kt
Kans 40% :
Tijdelijke
van 16 om 08 UTC tot 16 om 12 UTC
Gebroken wolken op 1600 ft
lichte regenbuien

TAF: FSIA 151105Z 1512/1612 13015G25KT 9999 SCT020 BECMG 1602/1604 13015G20KT PROB40 TEMPO 1608/1612 -SHRA BKN016

Waarnemingen en weersverwachtingen van meer dan 4000 vliegvelden (METAR en TAF).

De beschikbare stations zijn de gele en rode punten op de kaart.

Ga met uw muis naar het station om de naam te zien.

Klik dan om waarnemingen en weersverwachtingen te zien.

kaart wijzigen: klik op de groene knoppen met een zwart kruis om in te zoomen, op de groene knop met een streepje om uit te zoomen of op de groene pijlen voor aangrenzende kaarten.


METAR-TAF: